createdAt,value
2022-09-24T00:02:11.374Z,16.92
2022-09-24T00:04:41.345Z,16.96
2022-09-24T00:07:09.737Z,16.65
2022-09-24T00:09:38.123Z,16.73
2022-09-24T00:12:06.482Z,16.77
2022-09-24T00:14:34.806Z,16.69
2022-09-24T00:17:03.188Z,16.44
2022-09-24T00:19:31.583Z,16.30
2022-09-24T00:22:01.300Z,15.96
2022-09-24T00:24:47.222Z,16.30
2022-09-24T00:27:15.566Z,15.84
2022-09-24T00:29:43.958Z,16.26
2022-09-24T00:32:13.469Z,16.53
2022-09-24T00:34:41.830Z,16.55
2022-09-24T00:37:11.963Z,16.83
2022-09-24T00:39:40.483Z,16.59
2022-09-24T00:42:10.328Z,16.57
2022-09-24T00:44:59.379Z,16.75
2022-09-24T00:47:34.054Z,16.71
2022-09-24T00:50:08.191Z,16.88
2022-09-24T00:52:41.829Z,17.02
2022-09-24T00:55:10.860Z,16.97
2022-09-24T00:57:40.303Z,17.02
2022-09-24T01:00:10.025Z,16.71
2022-09-24T01:02:40.634Z,16.40
2022-09-24T01:05:10.263Z,16.12
2022-09-24T01:07:40.002Z,16.32
2022-09-24T01:10:08.716Z,16.32
2022-09-24T01:12:43.215Z,16.62
2022-09-24T01:15:19.710Z,16.42
2022-09-24T01:17:54.206Z,16.15
2022-09-24T01:20:52.605Z,16.28
2022-09-24T01:23:37.536Z,16.56
2022-09-24T01:26:19.139Z,16.60
2022-09-24T01:28:59.383Z,16.38
2022-09-24T01:31:32.794Z,16.61
2022-09-24T01:34:05.727Z,16.46
2022-09-24T01:36:35.376Z,16.25
2022-09-24T01:39:04.758Z,15.98
2022-09-24T01:41:34.241Z,15.20
2022-09-24T01:44:05.125Z,15.54
2022-09-24T01:46:34.918Z,15.78
2022-09-24T01:49:03.268Z,16.29
2022-09-24T01:51:35.829Z,16.35
2022-09-24T01:54:07.190Z,16.25
2022-09-24T01:56:40.142Z,16.01
2022-09-24T01:59:13.170Z,16.27
2022-09-24T02:01:46.694Z,16.24
2022-09-24T02:04:17.802Z,15.75
2022-09-24T02:06:48.615Z,15.77
2022-09-24T02:09:34.332Z,15.76
2022-09-24T02:12:08.151Z,15.50
2022-09-24T02:14:40.256Z,15.81
2022-09-24T02:17:11.182Z,15.91
2022-09-24T02:19:40.876Z,15.99
2022-09-24T02:22:12.144Z,15.95
2022-09-24T02:24:45.799Z,15.61
2022-09-24T02:27:14.082Z,15.68
2022-09-24T02:29:42.500Z,15.78
2022-09-24T02:32:15.894Z,15.79
2022-09-24T02:34:46.355Z,15.68
2022-09-24T02:37:16.161Z,15.70
2022-09-24T02:39:44.518Z,15.76
2022-09-24T02:42:14.650Z,15.80
2022-09-24T02:44:42.901Z,15.36
2022-09-24T02:47:12.542Z,15.65
2022-09-24T02:49:41.166Z,15.20
2022-09-24T02:52:10.357Z,15.48
2022-09-24T02:54:39.003Z,14.98
2022-09-24T02:57:07.270Z,15.31
2022-09-24T02:59:35.977Z,15.42
2022-09-24T03:02:04.618Z,15.46
2022-09-24T03:04:34.436Z,15.41
2022-09-24T03:07:03.074Z,15.46
2022-09-24T03:09:31.454Z,15.50
2022-09-24T03:12:00.727Z,15.36
2022-09-24T03:14:29.285Z,14.86
2022-09-24T03:16:57.561Z,14.22
2022-09-24T03:19:25.853Z,14.44
2022-09-24T03:21:55.619Z,14.83
2022-09-24T03:24:23.903Z,15.23
2022-09-24T03:26:52.596Z,15.45
2022-09-24T03:29:41.287Z,15.40
2022-09-24T03:32:08.645Z,15.42
2022-09-24T03:34:37.066Z,15.48
2022-09-24T03:37:07.045Z,15.81
2022-09-24T03:39:35.365Z,15.90
2022-09-24T03:42:03.857Z,16.01
2022-09-24T03:44:32.116Z,16.13
2022-09-24T03:47:00.365Z,16.23
2022-09-24T03:49:28.630Z,16.28
2022-09-24T03:51:57.340Z,15.72
2022-09-24T03:54:27.033Z,16.05
2022-09-24T03:56:55.288Z,16.16
2022-09-24T03:59:23.647Z,16.09
2022-09-24T04:01:52.130Z,15.82
2022-09-24T04:04:20.445Z,15.83
2022-09-24T04:06:48.981Z,15.94
2022-09-24T04:09:17.360Z,16.06
2022-09-24T04:11:47.108Z,15.74
2022-09-24T04:14:15.457Z,15.38
2022-09-24T04:16:43.754Z,15.72
2022-09-24T04:19:12.273Z,16.11
2022-09-24T04:21:40.696Z,16.26
2022-09-24T04:24:09.136Z,16.26
2022-09-24T04:26:37.632Z,16.34
2022-09-24T04:29:08.055Z,16.46
2022-09-24T04:31:36.466Z,16.44
2022-09-24T04:34:04.902Z,16.37
2022-09-24T04:36:33.285Z,16.30
2022-09-24T04:39:03.364Z,16.29
2022-09-24T04:41:31.734Z,15.82
2022-09-24T04:43:59.995Z,15.88
2022-09-24T04:46:29.815Z,15.39
2022-09-24T04:48:58.157Z,15.27
2022-09-24T04:51:26.579Z,15.59
2022-09-24T04:53:54.995Z,15.71
2022-09-24T04:56:23.359Z,15.76
2022-09-24T04:58:52.801Z,15.40
2022-09-24T05:01:21.635Z,15.46
2022-09-24T05:03:51.367Z,15.89
2022-09-24T05:06:19.661Z,16.02
2022-09-24T05:08:47.994Z,16.23
2022-09-24T05:11:16.352Z,16.18
2022-09-24T05:13:44.776Z,16.40
2022-09-24T05:16:13.146Z,16.17
2022-09-24T05:18:41.546Z,15.84
2022-09-24T05:21:11.215Z,16.07
2022-09-24T05:23:39.488Z,16.25
2022-09-24T05:26:25.367Z,16.27
2022-09-24T05:28:53.904Z,16.40
2022-09-24T05:31:22.328Z,16.51
2022-09-24T05:33:50.848Z,16.17
2022-09-24T05:36:20.513Z,16.42
2022-09-24T05:38:48.767Z,16.70
2022-09-24T05:41:17.081Z,16.44
2022-09-24T05:43:45.369Z,16.66
2022-09-24T05:46:13.853Z,16.79
2022-09-24T05:48:42.267Z,16.75
2022-09-24T05:51:10.551Z,16.92
2022-09-24T05:53:40.300Z,16.97
2022-09-24T05:56:10.245Z,17.40
2022-09-24T05:58:38.645Z,17.62
2022-09-24T06:01:07.173Z,17.44
2022-09-24T06:06:21.630Z,17.92
2022-09-24T06:08:51.310Z,18.08
2022-09-24T06:11:19.576Z,17.52
2022-09-24T06:13:47.826Z,18.08
2022-09-24T06:16:16.104Z,18.28
2022-09-24T06:18:44.998Z,18.76
2022-09-24T06:21:14.405Z,18.98
2022-09-24T06:23:45.480Z,19.24
2022-09-24T06:26:15.337Z,19.25
2022-09-24T06:28:43.814Z,19.49
2022-09-24T06:31:12.689Z,19.82
2022-09-24T06:33:41.421Z,19.93
2022-09-24T06:36:10.275Z,19.64
2022-09-24T06:38:40.346Z,19.53
2022-09-24T06:41:09.649Z,19.96
2022-09-24T06:43:39.689Z,20.27
2022-09-24T06:46:08.042Z,20.33
2022-09-24T06:48:38.219Z,20.26
2022-09-24T06:51:07.878Z,19.07
2022-09-24T06:53:36.200Z,20.43
2022-09-24T06:56:04.630Z,20.06
2022-09-24T06:58:33.952Z,20.78
2022-09-24T07:01:04.611Z,20.40
2022-09-24T07:03:35.065Z,21.08
2022-09-24T07:06:05.697Z,21.12
2022-09-24T07:08:34.350Z,21.29
2022-09-24T07:11:02.691Z,20.81
2022-09-24T07:13:31.111Z,21.29
2022-09-24T07:18:31.112Z,21.16
2022-09-24T07:20:59.402Z,20.93
2022-09-24T07:23:27.984Z,21.15
2022-09-24T07:25:57.473Z,21.27
2022-09-24T07:28:26.281Z,21.43
2022-09-24T07:30:58.718Z,21.44
2022-09-24T07:33:27.322Z,21.54
2022-09-24T07:35:56.987Z,21.63
2022-09-24T07:38:25.282Z,21.63
2022-09-24T07:40:58.200Z,21.51
2022-09-24T07:43:28.555Z,21.44
2022-09-24T07:45:58.294Z,21.53
2022-09-24T07:48:26.688Z,21.34
2022-09-24T07:50:56.384Z,21.13
2022-09-24T07:53:24.745Z,20.56
2022-09-24T07:55:53.074Z,20.93
2022-09-24T07:58:22.016Z,20.82
2022-09-24T08:00:50.283Z,20.85
2022-09-24T08:03:18.622Z,20.50
2022-09-24T08:05:47.303Z,20.05
2022-09-24T08:08:16.939Z,20.47
2022-09-24T08:10:45.249Z,19.99
2022-09-24T08:13:13.875Z,20.77
2022-09-24T08:15:42.277Z,20.54
2022-09-24T08:18:10.746Z,20.59
2022-09-24T08:20:39.590Z,20.65
2022-09-24T08:23:10.700Z,20.75
2022-09-24T08:25:40.414Z,20.66
2022-09-24T08:28:11.244Z,21.05
2022-09-24T08:33:09.002Z,21.22
2022-09-24T08:35:38.437Z,21.15
2022-09-24T08:40:39.057Z,21.35
2022-09-24T08:43:14.521Z,20.86
2022-09-24T08:46:06.328Z,21.08
2022-09-24T08:48:38.189Z,21.67
2022-09-24T08:51:09.519Z,21.35
2022-09-24T08:53:45.356Z,21.27
2022-09-24T08:56:13.859Z,22.09
2022-09-24T08:58:46.851Z,22.33
2022-09-24T09:01:22.910Z,22.19
2022-09-24T09:03:55.909Z,22.10
2022-09-24T09:06:46.050Z,22.81
2022-09-24T09:09:17.715Z,21.88
2022-09-24T09:11:48.916Z,22.41
2022-09-24T09:14:21.679Z,23.34
2022-09-24T09:16:52.654Z,23.35
2022-09-24T09:19:25.025Z,23.44
2022-09-24T09:21:55.946Z,22.88
2022-09-24T09:24:29.896Z,23.30
2022-09-24T09:26:58.745Z,22.57
2022-09-24T09:29:28.886Z,21.62
2022-09-24T09:32:04.528Z,21.86
2022-09-24T09:34:53.310Z,22.27
2022-09-24T09:37:29.299Z,21.67
2022-09-24T09:40:10.219Z,21.55
2022-09-24T09:42:40.476Z,22.78
2022-09-24T09:45:26.917Z,21.99
2022-09-24T09:47:58.160Z,22.85
2022-09-24T09:50:29.204Z,22.51
2022-09-24T09:52:57.608Z,22.65
2022-09-24T09:55:28.040Z,21.92
2022-09-24T09:58:00.083Z,22.60
2022-09-24T10:00:35.233Z,22.38
2022-09-24T10:03:04.312Z,22.34
2022-09-24T10:05:32.834Z,22.71
2022-09-24T10:08:01.188Z,22.06
2022-09-24T10:10:30.624Z,22.55
2022-09-24T10:13:09.076Z,22.71
2022-09-24T10:15:50.303Z,21.90
2022-09-24T10:18:26.020Z,21.86
2022-09-24T10:20:54.680Z,22.46
2022-09-24T10:23:25.006Z,22.17
2022-09-24T10:25:57.805Z,22.27
2022-09-24T10:28:44.040Z,22.30
2022-09-24T10:31:16.012Z,22.44
2022-09-24T10:33:46.149Z,22.46
2022-09-24T10:36:16.613Z,21.72
2022-09-24T10:38:44.812Z,22.58
2022-09-24T10:41:18.048Z,22.81
2022-09-24T10:43:52.433Z,22.40
2022-09-24T10:46:37.043Z,22.95
2022-09-24T10:49:10.217Z,22.34
2022-09-24T10:51:45.814Z,22.99
2022-09-24T10:54:27.206Z,22.47
2022-09-24T10:56:58.125Z,22.92
2022-09-24T10:59:34.803Z,23.44
2022-09-24T11:02:20.023Z,22.94
2022-09-24T11:04:51.939Z,23.37
2022-09-24T11:07:46.770Z,22.55
2022-09-24T11:10:24.440Z,22.58
2022-09-24T11:13:03.756Z,22.62
2022-09-24T11:15:45.720Z,22.23
2022-09-24T11:18:28.648Z,22.60
2022-09-24T11:21:03.007Z,23.21
2022-09-24T11:23:45.333Z,22.32
2022-09-24T11:26:24.463Z,23.00
2022-09-24T11:29:06.808Z,22.74
2022-09-24T11:31:42.922Z,23.41
2022-09-24T11:34:27.437Z,23.69
2022-09-24T11:37:06.106Z,23.74
2022-09-24T11:39:45.459Z,23.41
2022-09-24T11:42:23.018Z,23.78
2022-09-24T11:45:16.339Z,23.36
2022-09-24T11:47:56.576Z,23.95
2022-09-24T11:50:35.199Z,23.83
2022-09-24T11:53:07.535Z,24.71
2022-09-24T11:55:38.612Z,24.72
2022-09-24T11:58:14.528Z,25.29
2022-09-24T12:00:46.500Z,24.23
2022-09-24T12:03:22.279Z,24.25
2022-09-24T12:06:00.617Z,24.96
2022-09-24T12:08:32.736Z,24.80
2022-09-24T12:11:03.873Z,24.42
2022-09-24T12:16:24.793Z,23.60
2022-09-24T12:18:57.019Z,24.23
2022-09-24T12:21:28.827Z,22.82
2022-09-24T12:24:03.024Z,22.54
2022-09-24T12:26:40.937Z,22.73
2022-09-24T12:29:42.434Z,22.99
2022-09-24T12:32:33.915Z,22.73
2022-09-24T12:35:09.739Z,22.42
2022-09-24T12:37:42.119Z,22.32
2022-09-24T12:40:22.792Z,22.90
2022-09-24T12:42:52.980Z,23.36
2022-09-24T12:45:23.579Z,23.24
2022-09-24T12:47:55.370Z,23.65
2022-09-24T12:50:27.597Z,23.48
2022-09-24T12:52:57.975Z,23.42
2022-09-24T12:55:28.198Z,24.14
2022-09-24T12:57:58.211Z,24.45
2022-09-24T13:00:38.691Z,23.87
2022-09-24T13:03:07.541Z,24.37
2022-09-24T13:05:48.699Z,24.23
2022-09-24T13:08:29.117Z,24.58
2022-09-24T13:11:00.573Z,24.19
2022-09-24T13:13:31.849Z,24.44
2022-09-24T13:16:02.999Z,24.67
2022-09-24T13:18:32.812Z,24.01
2022-09-24T13:21:03.627Z,24.30
2022-09-24T13:23:48.926Z,24.08
2022-09-24T13:26:35.030Z,24.24
2022-09-24T13:29:04.824Z,24.33
2022-09-24T13:31:44.905Z,24.84
2022-09-24T13:34:17.590Z,25.05
2022-09-24T13:36:50.236Z,25.26
2022-09-24T13:39:23.440Z,25.30
2022-09-24T13:41:58.037Z,25.33
2022-09-24T13:44:30.077Z,25.26
2022-09-24T13:47:01.250Z,24.37
2022-09-24T13:49:30.862Z,24.20
2022-09-24T13:52:08.153Z,24.20
2022-09-24T13:54:46.642Z,25.52
2022-09-24T13:57:22.157Z,25.49
2022-09-24T13:59:50.539Z,25.28
2022-09-24T14:02:26.564Z,25.16
2022-09-24T14:04:56.226Z,25.17
2022-09-24T14:07:24.818Z,25.55
2022-09-24T14:10:05.751Z,26.22
2022-09-24T14:12:34.195Z,25.89
2022-09-24T14:15:06.026Z,25.34
2022-09-24T14:17:34.393Z,25.07
2022-09-24T14:20:03.133Z,24.33
2022-09-24T14:22:35.379Z,25.76
2022-09-24T14:25:08.736Z,25.54
2022-09-24T14:27:40.091Z,25.23
2022-09-24T14:30:16.985Z,25.24
2022-09-24T14:32:45.632Z,24.59
2022-09-24T14:35:19.499Z,25.03
2022-09-24T14:37:50.388Z,24.91
2022-09-24T14:40:21.840Z,25.02
2022-09-24T14:42:54.150Z,25.14
2022-09-24T14:45:24.927Z,25.44
2022-09-24T14:48:01.540Z,25.18
2022-09-24T14:50:35.745Z,25.72
2022-09-24T14:53:13.305Z,25.19
2022-09-24T14:55:46.456Z,25.73
2022-09-24T14:58:25.091Z,25.42
2022-09-24T15:00:56.127Z,25.26
2022-09-24T15:03:29.267Z,25.45
2022-09-24T15:06:08.719Z,25.65
2022-09-24T15:08:37.452Z,25.47
2022-09-24T15:11:07.850Z,25.55
2022-09-24T15:13:36.706Z,25.65
2022-09-24T15:16:07.117Z,25.32
2022-09-24T15:18:36.209Z,25.36
2022-09-24T15:21:08.283Z,25.40
2022-09-24T15:23:36.808Z,25.28
2022-09-24T15:26:05.332Z,25.20
2022-09-24T15:28:35.031Z,25.36
2022-09-24T15:31:03.360Z,25.18
2022-09-24T15:33:31.671Z,25.20
2022-09-24T15:36:00.345Z,25.24
2022-09-24T15:38:28.647Z,25.02
2022-09-24T15:40:57.002Z,24.97
2022-09-24T15:43:26.328Z,24.92
2022-09-24T15:45:55.975Z,24.87
2022-09-24T15:48:24.393Z,24.68
2022-09-24T15:50:52.708Z,24.70
2022-09-24T15:53:23.830Z,24.74
2022-09-24T15:55:54.403Z,24.71
2022-09-24T15:58:23.013Z,24.64
2022-09-24T16:00:51.719Z,24.65
2022-09-24T16:03:24.839Z,24.66
2022-09-24T16:05:53.846Z,24.63
2022-09-24T16:08:22.500Z,24.24
2022-09-24T16:10:50.992Z,24.25
2022-09-24T16:13:20.158Z,23.96
2022-09-24T16:15:49.220Z,24.11
2022-09-24T16:18:18.752Z,23.77
2022-09-24T16:20:48.441Z,24.30
2022-09-24T16:23:17.754Z,24.23
2022-09-24T16:25:55.801Z,23.88
2022-09-24T16:28:24.681Z,24.10
2022-09-24T16:30:53.172Z,23.91
2022-09-24T16:33:21.823Z,23.29
2022-09-24T16:35:51.762Z,23.49
2022-09-24T16:38:22.935Z,23.86
2022-09-24T16:41:00.707Z,24.04
2022-09-24T16:43:29.132Z,24.00
2022-09-24T16:46:03.788Z,23.85
2022-09-24T16:48:32.632Z,23.68
2022-09-24T16:51:06.690Z,23.99
2022-09-24T16:53:35.277Z,23.88
2022-09-24T16:56:05.245Z,23.86
2022-09-24T16:58:33.768Z,23.76
2022-09-24T17:01:05.084Z,23.73
2022-09-24T17:03:33.683Z,23.64
2022-09-24T17:06:02.179Z,23.57
2022-09-24T17:08:47.395Z,23.51
2022-09-24T17:11:15.712Z,23.45
2022-09-24T17:13:44.308Z,23.45
2022-09-24T17:16:12.726Z,23.38
2022-09-24T17:18:41.201Z,23.39
2022-09-24T17:21:11.480Z,23.40
2022-09-24T17:23:41.336Z,23.40
2022-09-24T17:26:11.732Z,23.08
2022-09-24T17:28:41.917Z,23.07
2022-09-24T17:31:11.324Z,23.17
2022-09-24T17:33:44.273Z,23.13
2022-09-24T17:36:14.313Z,23.17
2022-09-24T17:38:44.418Z,23.11
2022-09-24T17:41:13.979Z,23.10
2022-09-24T17:46:30.317Z,23.07
2022-09-24T17:49:00.144Z,23.02
2022-09-24T17:51:30.378Z,23.04
2022-09-24T17:54:01.529Z,23.16
2022-09-24T17:56:32.116Z,22.70
2022-09-24T17:59:00.475Z,22.59
2022-09-24T18:01:33.658Z,22.70
2022-09-24T18:04:02.662Z,22.92
2022-09-24T18:06:33.077Z,22.92
2022-09-24T18:09:03.851Z,22.69
2022-09-24T18:11:33.137Z,22.90
2022-09-24T18:14:03.389Z,22.50
2022-09-24T18:16:33.148Z,22.01
2022-09-24T18:19:02.843Z,21.93
2022-09-24T18:21:31.543Z,22.05
2022-09-24T18:24:02.838Z,22.53
2022-09-24T18:26:34.264Z,22.64
2022-09-24T18:29:05.886Z,22.75
2022-09-24T18:31:35.307Z,22.66
2022-09-24T18:34:06.798Z,22.45
2022-09-24T18:36:37.933Z,21.91
2022-09-24T18:39:11.550Z,21.46
2022-09-24T18:41:41.091Z,21.35
2022-09-24T18:44:11.061Z,21.36
2022-09-24T18:46:39.610Z,21.67
2022-09-24T18:49:09.283Z,22.20
2022-09-24T18:51:39.332Z,22.39
2022-09-24T18:54:11.917Z,22.40
2022-09-24T18:56:40.424Z,22.40
2022-09-24T18:59:12.754Z,22.44
2022-09-24T19:01:42.316Z,22.16
2022-09-24T19:04:12.525Z,22.30
2022-09-24T19:06:42.786Z,22.22
2022-09-24T19:09:14.441Z,22.16
2022-09-24T19:11:42.847Z,22.18
2022-09-24T19:14:12.822Z,22.13
2022-09-24T19:16:41.491Z,21.39
2022-09-24T19:19:11.271Z,21.91
2022-09-24T19:21:41.319Z,22.24
2022-09-24T19:24:09.940Z,22.33
2022-09-24T19:26:39.695Z,22.41
2022-09-24T19:29:08.090Z,22.30
2022-09-24T19:31:37.627Z,22.20
2022-09-24T19:34:06.945Z,22.27
2022-09-24T19:36:43.731Z,22.29
2022-09-24T19:39:13.797Z,22.25
2022-09-24T19:41:44.005Z,22.35
2022-09-24T19:44:13.027Z,22.04
2022-09-24T19:46:41.626Z,22.03
2022-09-24T19:49:10.068Z,22.20
2022-09-24T19:51:38.678Z,22.08
2022-09-24T19:54:08.201Z,22.22
2022-09-24T19:56:36.653Z,21.50
2022-09-24T19:59:08.066Z,21.35
2022-09-24T20:04:07.112Z,20.95
2022-09-24T20:06:36.992Z,21.20
2022-09-24T20:09:05.542Z,20.98
2022-09-24T20:11:33.975Z,20.83
2022-09-24T20:14:02.534Z,21.30
2022-09-24T20:16:33.539Z,21.36
2022-09-24T20:19:02.908Z,21.50
2022-09-24T20:21:34.868Z,21.28
2022-09-24T20:24:04.369Z,21.63
2022-09-24T20:26:50.906Z,21.51
2022-09-24T20:29:22.064Z,21.91
2022-09-24T20:31:53.129Z,22.05
2022-09-24T20:34:23.152Z,22.24
2022-09-24T20:36:52.108Z,22.19
2022-09-24T20:39:20.732Z,21.71
2022-09-24T20:41:50.227Z,21.87
2022-09-24T20:44:18.958Z,21.87
2022-09-24T20:46:47.554Z,22.21
2022-09-24T20:49:22.766Z,22.20
2022-09-24T20:51:56.556Z,22.20
2022-09-24T20:54:26.441Z,22.13
2022-09-24T20:56:54.886Z,22.21
2022-09-24T20:59:25.067Z,21.57
2022-09-24T21:01:53.999Z,21.62
2022-09-24T21:04:24.350Z,21.24
2022-09-24T21:06:52.689Z,20.99
2022-09-24T21:09:21.094Z,20.77
2022-09-24T21:11:50.518Z,21.23
2022-09-24T21:14:19.274Z,21.55
2022-09-24T21:16:47.898Z,21.70
2022-09-24T21:19:16.462Z,21.21
2022-09-24T21:21:47.255Z,21.41
2022-09-24T21:24:16.423Z,21.39
2022-09-24T21:26:45.601Z,21.75
2022-09-24T21:29:16.337Z,21.98
2022-09-24T21:31:46.238Z,21.94
2022-09-24T21:34:16.060Z,22.11
2022-09-24T21:36:46.644Z,22.15
2022-09-24T21:39:15.761Z,21.86
2022-09-24T21:41:44.681Z,21.41
2022-09-24T21:44:15.702Z,21.52
2022-09-24T21:46:44.287Z,21.84
2022-09-24T21:49:12.898Z,21.97
2022-09-24T21:51:41.974Z,22.03
2022-09-24T21:54:16.198Z,22.14
2022-09-24T21:56:45.070Z,21.93
2022-09-24T21:59:30.908Z,21.91
2022-09-24T22:01:59.267Z,21.71
2022-09-24T22:04:27.833Z,21.85
2022-09-24T22:06:56.289Z,21.28
2022-09-24T22:09:26.828Z,21.12
2022-09-24T22:11:55.890Z,20.69
2022-09-24T22:14:24.381Z,20.47
2022-09-24T22:16:52.782Z,20.10
2022-09-24T22:19:21.320Z,20.82
2022-09-24T22:21:49.639Z,21.59
2022-09-24T22:24:17.911Z,21.74
2022-09-24T22:26:48.328Z,21.79
2022-09-24T22:29:16.786Z,21.79
2022-09-24T22:31:45.154Z,21.73
2022-09-24T22:34:31.034Z,21.68
2022-09-24T22:36:59.341Z,21.72
2022-09-24T22:39:27.615Z,21.20
2022-09-24T22:41:57.286Z,21.67
2022-09-24T22:44:25.573Z,21.69
2022-09-24T22:46:53.884Z,21.62
2022-09-24T22:49:22.539Z,21.39
2022-09-24T22:51:51.285Z,21.55
2022-09-24T22:54:19.565Z,21.63
2022-09-24T22:56:47.860Z,21.55
2022-09-24T22:59:17.517Z,21.61
2022-09-24T23:01:46.027Z,21.52
2022-09-24T23:04:15.119Z,21.47
2022-09-24T23:06:44.160Z,21.57
2022-09-24T23:09:12.832Z,21.62
2022-09-24T23:11:41.489Z,21.54
2022-09-24T23:14:13.426Z,21.49
2022-09-24T23:16:43.872Z,21.63
2022-09-24T23:19:15.035Z,21.60
2022-09-24T23:21:43.478Z,21.32
2022-09-24T23:24:15.173Z,21.31
2022-09-24T23:26:43.657Z,21.48
2022-09-24T23:29:13.022Z,21.33
2022-09-24T23:31:42.914Z,21.51
2022-09-24T23:34:13.111Z,21.64
2022-09-24T23:36:41.510Z,21.53
2022-09-24T23:39:09.939Z,21.50
2022-09-24T23:41:38.444Z,21.47
2022-09-24T23:44:06.927Z,21.36
2022-09-24T23:46:35.294Z,21.00
2022-09-24T23:49:05.393Z,21.33
2022-09-24T23:51:33.726Z,21.45
2022-09-24T23:54:02.092Z,21.25
2022-09-24T23:56:30.451Z,21.43
2022-09-24T23:58:59.003Z,21.56
